sensor_id;sensor_type;location;lat;lon;timestamp;pressure;altitude;pressure_sealevel;temperature;humidity
9695;BME280;4690;52.422;13.486;2022-08-01T00:05:57;100884.03;;;25.07;46.93
9695;BME280;4690;52.422;13.486;2022-08-01T00:08:23;100878.44;;;25.07;46.97
9695;BME280;4690;52.422;13.486;2022-08-01T00:10:49;100881.03;;;25.03;46.99
9695;BME280;4690;52.422;13.486;2022-08-01T00:13:15;100874.59;;;25.02;47.63
9695;BME280;4690;52.422;13.486;2022-08-01T00:15:40;100888.63;;;25.02;47.49
9695;BME280;4690;52.422;13.486;2022-08-01T00:18:06;100888.63;;;25.02;47.73
9695;BME280;4690;52.422;13.486;2022-08-01T00:20:32;100895.00;;;24.94;47.85
9695;BME280;4690;52.422;13.486;2022-08-01T00:22:57;100889.72;;;24.93;47.86
9695;BME280;4690;52.422;13.486;2022-08-01T00:25:23;100880.28;;;24.89;47.83
9695;BME280;4690;52.422;13.486;2022-08-01T00:27:49;100893.16;;;24.90;48.01
9695;BME280;4690;52.422;13.486;2022-08-01T00:30:14;100886.53;;;24.86;48.55
9695;BME280;4690;52.422;13.486;2022-08-01T00:32:43;100892.97;;;24.86;48.38
9695;BME280;4690;52.422;13.486;2022-08-01T00:35:10;100901.38;;;24.86;49.06
9695;BME280;4690;52.422;13.486;2022-08-01T00:37:35;100888.16;;;24.78;49.17
9695;BME280;4690;52.422;13.486;2022-08-01T00:40:01;100886.81;;;24.75;49.55
9695;BME280;4690;52.422;13.486;2022-08-01T00:42:27;100888.06;;;24.69;49.74
9695;BME280;4690;52.422;13.486;2022-08-01T00:44:53;100891.03;;;24.64;50.28
9695;BME280;4690;52.422;13.486;2022-08-01T00:47:18;100889.34;;;24.63;50.67
9695;BME280;4690;52.422;13.486;2022-08-01T00:49:44;100891.66;;;24.61;50.91
9695;BME280;4690;52.422;13.486;2022-08-01T00:52:10;100889.47;;;24.58;51.17
9695;BME280;4690;52.422;13.486;2022-08-01T00:54:36;100886.66;;;24.58;51.30
9695;BME280;4690;52.422;13.486;2022-08-01T00:57:02;100894.25;;;24.57;51.28
9695;BME280;4690;52.422;13.486;2022-08-01T00:59:28;100892.72;;;24.51;51.44
9695;BME280;4690;52.422;13.486;2022-08-01T01:01:54;100889.22;;;24.46;51.88
9695;BME280;4690;52.422;13.486;2022-08-01T01:04:20;100886.59;;;24.49;52.14
9695;BME280;4690;52.422;13.486;2022-08-01T01:07:11;100887.22;;;24.46;52.31
9695;BME280;4690;52.422;13.486;2022-08-01T01:09:52;100888.75;;;24.52;52.18
9695;BME280;4690;52.422;13.486;2022-08-01T01:12:46;100881.84;;;24.50;52.34
9695;BME280;4690;52.422;13.486;2022-08-01T01:18:37;100873.22;;;24.46;52.77
9695;BME280;4690;52.422;13.486;2022-08-01T01:29:54;100876.34;;;24.45;52.86
9695;BME280;4690;52.422;13.486;2022-08-01T01:32:38;100872.31;;;24.37;53.36
9695;BME280;4690;52.422;13.486;2022-08-01T01:35:28;100871.91;;;24.30;53.64
9695;BME280;4690;52.422;13.486;2022-08-01T01:38:21;100868.91;;;24.26;53.82
9695;BME280;4690;52.422;13.486;2022-08-01T01:40:52;100865.28;;;24.26;53.42
9695;BME280;4690;52.422;13.486;2022-08-01T01:43:20;100865.50;;;24.15;53.46
9695;BME280;4690;52.422;13.486;2022-08-01T01:45:49;100872.22;;;23.92;54.53
9695;BME280;4690;52.422;13.486;2022-08-01T01:48:18;100872.13;;;23.83;54.84
9695;BME280;4690;52.422;13.486;2022-08-01T01:50:49;100865.72;;;23.83;54.90
9695;BME280;4690;52.422;13.486;2022-08-01T01:53:20;100869.44;;;23.78;54.73
9695;BME280;4690;52.422;13.486;2022-08-01T01:55:52;100863.66;;;23.75;54.65
9695;BME280;4690;52.422;13.486;2022-08-01T01:58:20;100863.44;;;23.57;55.75
9695;BME280;4690;52.422;13.486;2022-08-01T02:00:50;100867.78;;;23.49;55.68
9695;BME280;4690;52.422;13.486;2022-08-01T02:03:18;100862.69;;;23.38;56.55
9695;BME280;4690;52.422;13.486;2022-08-01T02:05:46;100869.31;;;23.28;57.18
9695;BME280;4690;52.422;13.486;2022-08-01T02:08:16;100872.00;;;23.33;56.69
9695;BME280;4690;52.422;13.486;2022-08-01T02:10:44;100875.97;;;23.46;56.94
9695;BME280;4690;52.422;13.486;2022-08-01T02:13:36;100872.63;;;23.30;57.48
9695;BME280;4690;52.422;13.486;2022-08-01T02:16:04;100872.94;;;23.15;58.66
9695;BME280;4690;52.422;13.486;2022-08-01T02:18:31;100880.38;;;23.19;58.45
9695;BME280;4690;52.422;13.486;2022-08-01T02:21:00;100877.09;;;23.17;58.14
9695;BME280;4690;52.422;13.486;2022-08-01T02:23:34;100879.16;;;23.12;58.72
9695;BME280;4690;52.422;13.486;2022-08-01T02:26:09;100876.72;;;23.05;59.01
9695;BME280;4690;52.422;13.486;2022-08-01T02:28:57;100882.69;;;23.17;59.11
9695;BME280;4690;52.422;13.486;2022-08-01T02:31:26;100880.41;;;23.33;59.07
9695;BME280;4690;52.422;13.486;2022-08-01T02:34:02;100873.16;;;23.32;58.34
9695;BME280;4690;52.422;13.486;2022-08-01T02:36:35;100874.38;;;23.12;59.32
9695;BME280;4690;52.422;13.486;2022-08-01T02:39:09;100880.22;;;22.97;59.91
9695;BME280;4690;52.422;13.486;2022-08-01T02:41:42;100882.59;;;22.90;60.80
9695;BME280;4690;52.422;13.486;2022-08-01T02:44:14;100877.16;;;22.79;61.03
9695;BME280;4690;52.422;13.486;2022-08-01T02:46:51;100882.25;;;22.91;60.41
9695;BME280;4690;52.422;13.486;2022-08-01T02:49:20;100879.03;;;22.84;61.08
9695;BME280;4690;52.422;13.486;2022-08-01T02:51:48;100878.63;;;22.91;60.37
9695;BME280;4690;52.422;13.486;2022-08-01T02:54:17;100882.06;;;22.88;60.68
9695;BME280;4690;52.422;13.486;2022-08-01T02:56:45;100875.72;;;22.82;60.79
9695;BME280;4690;52.422;13.486;2022-08-01T02:59:16;100873.84;;;22.77;61.46
9695;BME280;4690;52.422;13.486;2022-08-01T03:01:44;100882.31;;;22.72;61.61
9695;BME280;4690;52.422;13.486;2022-08-01T03:04:14;100873.22;;;22.80;61.14
9695;BME280;4690;52.422;13.486;2022-08-01T03:06:44;100873.09;;;22.72;61.42
9695;BME280;4690;52.422;13.486;2022-08-01T03:09:11;100871.78;;;22.83;61.08
9695;BME280;4690;52.422;13.486;2022-08-01T03:11:41;100877.94;;;22.66;61.84
9695;BME280;4690;52.422;13.486;2022-08-01T03:14:09;100874.88;;;22.49;62.51
9695;BME280;4690;52.422;13.486;2022-08-01T03:16:40;100881.22;;;22.54;61.91
9695;BME280;4690;52.422;13.486;2022-08-01T03:19:09;100879.84;;;22.52;62.57
9695;BME280;4690;52.422;13.486;2022-08-01T03:21:39;100883.31;;;22.44;62.35
9695;BME280;4690;52.422;13.486;2022-08-01T03:24:07;100891.50;;;22.40;62.81
9695;BME280;4690;52.422;13.486;2022-08-01T03:26:36;100887.13;;;22.34;62.80
9695;BME280;4690;52.422;13.486;2022-08-01T03:29:06;100889.69;;;22.30;63.48
9695;BME280;4690;52.422;13.486;2022-08-01T03:31:37;100884.19;;;22.25;63.65
9695;BME280;4690;52.422;13.486;2022-08-01T03:34:04;100891.75;;;22.25;63.86
9695;BME280;4690;52.422;13.486;2022-08-01T03:36:33;100888.34;;;22.28;63.50
9695;BME280;4690;52.422;13.486;2022-08-01T03:39:05;100892.13;;;22.13;64.30
9695;BME280;4690;52.422;13.486;2022-08-01T03:41:41;100886.53;;;22.13;64.33
9695;BME280;4690;52.422;13.486;2022-08-01T03:44:15;100890.88;;;22.05;64.69
9695;BME280;4690;52.422;13.486;2022-08-01T03:46:51;100892.44;;;22.11;64.54
9695;BME280;4690;52.422;13.486;2022-08-01T03:49:27;100896.06;;;22.12;64.45
9695;BME280;4690;52.422;13.486;2022-08-01T03:51:56;100896.88;;;22.12;64.69
9695;BME280;4690;52.422;13.486;2022-08-01T03:54:26;100897.22;;;22.11;64.41
9695;BME280;4690;52.422;13.486;2022-08-01T03:56:54;100899.47;;;22.09;64.56
9695;BME280;4690;52.422;13.486;2022-08-01T03:59:21;100904.00;;;22.05;65.04
9695;BME280;4690;52.422;13.486;2022-08-01T04:01:48;100907.00;;;22.08;65.04
9695;BME280;4690;52.422;13.486;2022-08-01T04:04:14;100900.88;;;22.06;65.42
9695;BME280;4690;52.422;13.486;2022-08-01T04:06:41;100907.44;;;22.15;65.09
9695;BME280;4690;52.422;13.486;2022-08-01T04:09:10;100898.22;;;22.20;64.98
9695;BME280;4690;52.422;13.486;2022-08-01T04:11:37;100909.19;;;22.11;65.22
9695;BME280;4690;52.422;13.486;2022-08-01T04:14:04;100898.50;;;22.19;65.06
9695;BME280;4690;52.422;13.486;2022-08-01T04:16:29;100913.63;;;22.12;65.36
9695;BME280;4690;52.422;13.486;2022-08-01T04:18:55;100901.34;;;22.13;65.61
9695;BME280;4690;52.422;13.486;2022-08-01T04:21:25;100903.88;;;22.34;65.35
9695;BME280;4690;52.422;13.486;2022-08-01T04:23:59;100897.16;;;22.35;65.20
9695;BME280;4690;52.422;13.486;2022-08-01T04:26:31;100902.72;;;22.35;64.74
9695;BME280;4690;52.422;13.486;2022-08-01T04:29:00;100914.44;;;22.18;65.70
9695;BME280;4690;52.422;13.486;2022-08-01T04:31:30;100910.53;;;22.19;65.86
9695;BME280;4690;52.422;13.486;2022-08-01T04:33:58;100909.59;;;22.24;66.02
9695;BME280;4690;52.422;13.486;2022-08-01T04:36:28;100900.00;;;22.30;65.51
9695;BME280;4690;52.422;13.486;2022-08-01T04:38:59;100907.72;;;22.38;65.42
9695;BME280;4690;52.422;13.486;2022-08-01T04:41:26;100909.31;;;22.44;65.38
9695;BME280;4690;52.422;13.486;2022-08-01T04:43:53;100907.81;;;22.33;65.96
9695;BME280;4690;52.422;13.486;2022-08-01T04:46:21;100907.81;;;22.33;66.35
9695;BME280;4690;52.422;13.486;2022-08-01T04:48:49;100908.16;;;22.26;66.43
9695;BME280;4690;52.422;13.486;2022-08-01T04:51:17;100911.94;;;22.35;66.53
9695;BME280;4690;52.422;13.486;2022-08-01T04:53:46;100917.78;;;22.39;66.53
9695;BME280;4690;52.422;13.486;2022-08-01T04:56:12;100920.25;;;22.41;67.54
9695;BME280;4690;52.422;13.486;2022-08-01T04:58:42;100929.53;;;22.36;67.34
9695;BME280;4690;52.422;13.486;2022-08-01T05:01:09;100927.19;;;22.43;67.65
9695;BME280;4690;52.422;13.486;2022-08-01T05:03:36;100931.34;;;22.46;67.80
9695;BME280;4690;52.422;13.486;2022-08-01T05:06:03;100930.16;;;22.33;68.37
9695;BME280;4690;52.422;13.486;2022-08-01T05:08:29;100922.72;;;22.23;68.36
9695;BME280;4690;52.422;13.486;2022-08-01T05:10:55;100928.63;;;22.41;68.48
9695;BME280;4690;52.422;13.486;2022-08-01T05:13:21;100928.75;;;22.49;68.48
9695;BME280;4690;52.422;13.486;2022-08-01T05:15:47;100928.16;;;22.52;68.21
9695;BME280;4690;52.422;13.486;2022-08-01T05:18:12;100929.00;;;22.34;68.81
9695;BME280;4690;52.422;13.486;2022-08-01T05:20:38;100931.47;;;22.35;68.68
9695;BME280;4690;52.422;13.486;2022-08-01T05:23:07;100941.22;;;22.38;68.93
9695;BME280;4690;52.422;13.486;2022-08-01T05:25:32;100934.06;;;22.32;68.99
9695;BME280;4690;52.422;13.486;2022-08-01T05:27:59;100939.63;;;22.32;69.08
9695;BME280;4690;52.422;13.486;2022-08-01T05:30:25;100934.22;;;22.41;68.92
9695;BME280;4690;52.422;13.486;2022-08-01T05:32:51;100933.31;;;22.45;68.91
9695;BME280;4690;52.422;13.486;2022-08-01T05:35:17;100937.25;;;22.44;68.87
9695;BME280;4690;52.422;13.486;2022-08-01T05:37:42;100938.34;;;22.43;69.02
9695;BME280;4690;52.422;13.486;2022-08-01T05:40:08;100939.84;;;22.35;69.15
9695;BME280;4690;52.422;13.486;2022-08-01T05:42:34;100934.44;;;22.44;69.41
9695;BME280;4690;52.422;13.486;2022-08-01T05:45:00;100936.72;;;22.61;69.19
9695;BME280;4690;52.422;13.486;2022-08-01T05:47:26;100934.06;;;22.70;68.80
9695;BME280;4690;52.422;13.486;2022-08-01T05:49:51;100932.31;;;22.74;68.75
9695;BME280;4690;52.422;13.486;2022-08-01T05:52:17;100931.63;;;22.82;68.45
9695;BME280;4690;52.422;13.486;2022-08-01T05:54:43;100940.00;;;22.82;68.28
9695;BME280;4690;52.422;13.486;2022-08-01T05:57:08;100932.06;;;22.89;67.71
9695;BME280;4690;52.422;13.486;2022-08-01T05:59:34;100947.56;;;22.81;68.27
9695;BME280;4690;52.422;13.486;2022-08-01T06:02:00;100945.09;;;22.94;68.43
9695;BME280;4690;52.422;13.486;2022-08-01T06:04:26;100939.69;;;23.02;67.95
9695;BME280;4690;52.422;13.486;2022-08-01T06:06:52;100951.69;;;23.03;67.45
9695;BME280;4690;52.422;13.486;2022-08-01T06:09:17;100950.16;;;23.11;67.18
9695;BME280;4690;52.422;13.486;2022-08-01T06:11:43;100950.69;;;23.13;66.67
9695;BME280;4690;52.422;13.486;2022-08-01T06:14:09;100947.81;;;23.18;67.01
9695;BME280;4690;52.422;13.486;2022-08-01T06:16:34;100949.28;;;22.96;66.74
9695;BME280;4690;52.422;13.486;2022-08-01T06:19:00;100951.03;;;22.92;67.56
9695;BME280;4690;52.422;13.486;2022-08-01T06:21:26;100958.88;;;23.09;67.95
9695;BME280;4690;52.422;13.486;2022-08-01T06:23:52;100955.50;;;23.26;67.90
9695;BME280;4690;52.422;13.486;2022-08-01T06:26:19;100952.09;;;23.29;66.61
9695;BME280;4690;52.422;13.486;2022-08-01T06:28:45;100960.44;;;23.15;66.98
9695;BME280;4690;52.422;13.486;2022-08-01T06:31:10;100951.75;;;23.31;67.09
9695;BME280;4690;52.422;13.486;2022-08-01T06:33:38;100964.75;;;23.40;66.37
9695;BME280;4690;52.422;13.486;2022-08-01T06:36:04;100953.13;;;23.33;66.02
9695;BME280;4690;52.422;13.486;2022-08-01T06:38:29;100964.22;;;23.38;66.10
9695;BME280;4690;52.422;13.486;2022-08-01T06:40:55;100965.97;;;23.48;66.28
9695;BME280;4690;52.422;13.486;2022-08-01T06:43:21;100966.91;;;23.43;66.30
9695;BME280;4690;52.422;13.486;2022-08-01T06:45:47;100966.09;;;23.43;66.69
9695;BME280;4690;52.422;13.486;2022-08-01T06:48:13;100973.25;;;23.49;65.99
9695;BME280;4690;52.422;13.486;2022-08-01T06:50:39;100969.72;;;23.43;66.50
9695;BME280;4690;52.422;13.486;2022-08-01T06:53:05;100977.50;;;23.46;66.65
9695;BME280;4690;52.422;13.486;2022-08-01T06:55:30;100972.00;;;23.41;67.06
9695;BME280;4690;52.422;13.486;2022-08-01T06:57:56;100972.00;;;23.41;68.60
9695;BME280;4690;52.422;13.486;2022-08-01T07:00:25;100972.06;;;23.36;68.74
9695;BME280;4690;52.422;13.486;2022-08-01T07:02:57;100971.75;;;23.24;69.43
9695;BME280;4690;52.422;13.486;2022-08-01T07:05:24;100979.06;;;23.20;69.05
9695;BME280;4690;52.422;13.486;2022-08-01T07:07:50;100979.19;;;23.15;70.34
9695;BME280;4690;52.422;13.486;2022-08-01T07:10:16;100975.78;;;23.18;70.14
9695;BME280;4690;52.422;13.486;2022-08-01T07:12:42;100970.38;;;23.21;69.74
9695;BME280;4690;52.422;13.486;2022-08-01T07:15:11;100977.34;;;23.24;69.81
9695;BME280;4690;52.422;13.486;2022-08-01T07:17:39;100972.28;;;23.26;69.32
9695;BME280;4690;52.422;13.486;2022-08-01T07:20:11;100969.19;;;23.41;68.58
9695;BME280;4690;52.422;13.486;2022-08-01T07:22:38;100970.78;;;23.61;67.62
9695;BME280;4690;52.422;13.486;2022-08-01T07:25:05;100969.56;;;23.81;67.72
9695;BME280;4690;52.422;13.486;2022-08-01T07:27:32;100968.22;;;23.92;66.64
9695;BME280;4690;52.422;13.486;2022-08-01T07:29:57;100977.56;;;23.88;65.81
9695;BME280;4690;52.422;13.486;2022-08-01T07:32:23;100979.03;;;23.99;65.23
9695;BME280;4690;52.422;13.486;2022-08-01T07:34:49;100986.78;;;24.02;65.02
9695;BME280;4690;52.422;13.486;2022-08-01T07:37:15;100985.72;;;24.12;64.91
9695;BME280;4690;52.422;13.486;2022-08-01T07:39:40;100975.38;;;23.99;64.48
9695;BME280;4690;52.422;13.486;2022-08-01T07:42:06;100975.38;;;23.99;64.07
9695;BME280;4690;52.422;13.486;2022-08-01T07:44:32;100984.28;;;24.28;65.25
9695;BME280;4690;52.422;13.486;2022-08-01T07:46:57;100980.31;;;24.43;62.67
9695;BME280;4690;52.422;13.486;2022-08-01T07:49:23;100977.81;;;24.42;62.81
9695;BME280;4690;52.422;13.486;2022-08-01T07:51:49;100989.44;;;24.21;62.51
9695;BME280;4690;52.422;13.486;2022-08-01T07:54:15;100993.75;;;24.05;63.65
9695;BME280;4690;52.422;13.486;2022-08-01T07:56:40;100993.31;;;23.98;64.50
9695;BME280;4690;52.422;13.486;2022-08-01T07:59:06;100996.72;;;23.81;65.02
9695;BME280;4690;52.422;13.486;2022-08-01T08:01:32;100996.09;;;23.84;65.60
9695;BME280;4690;52.422;13.486;2022-08-01T08:03:57;101000.88;;;23.83;66.45
9695;BME280;4690;52.422;13.486;2022-08-01T08:06:23;100999.81;;;23.79;65.71
9695;BME280;4690;52.422;13.486;2022-08-01T08:08:49;101003.50;;;23.93;65.39
9695;BME280;4690;52.422;13.486;2022-08-01T08:11:15;101002.25;;;24.13;65.22
9695;BME280;4690;52.422;13.486;2022-08-01T08:13:41;101000.66;;;24.21;63.08
9695;BME280;4690;52.422;13.486;2022-08-01T08:16:06;101005.44;;;24.21;63.06
9695;BME280;4690;52.422;13.486;2022-08-01T08:18:32;101003.59;;;24.16;62.76
9695;BME280;4690;52.422;13.486;2022-08-01T08:20:58;101007.63;;;24.10;63.02
9695;BME280;4690;52.422;13.486;2022-08-01T08:23:23;101005.66;;;24.10;63.01
9695;BME280;4690;52.422;13.486;2022-08-01T08:26:07;101016.63;;;24.07;63.00
9695;BME280;4690;52.422;13.486;2022-08-01T08:28:33;101010.84;;;24.03;62.62
9695;BME280;4690;52.422;13.486;2022-08-01T08:30:59;101007.84;;;24.00;62.44
9695;BME280;4690;52.422;13.486;2022-08-01T08:33:24;101008.34;;;24.02;62.49
9695;BME280;4690;52.422;13.486;2022-08-01T08:35:50;101013.44;;;24.00;62.16
9695;BME280;4690;52.422;13.486;2022-08-01T08:38:16;101016.88;;;24.10;62.07
9695;BME280;4690;52.422;13.486;2022-08-01T08:40:42;101020.97;;;24.13;62.49
9695;BME280;4690;52.422;13.486;2022-08-01T08:43:08;101029.06;;;23.87;60.97
9695;BME280;4690;52.422;13.486;2022-08-01T08:45:34;101030.13;;;23.77;61.33
9695;BME280;4690;52.422;13.486;2022-08-01T08:48:00;101029.13;;;23.68;61.96
9695;BME280;4690;52.422;13.486;2022-08-01T08:50:28;101038.19;;;23.79;62.09
9695;BME280;4690;52.422;13.486;2022-08-01T08:52:55;101035.63;;;23.82;61.84
9695;BME280;4690;52.422;13.486;2022-08-01T08:55:23;101038.81;;;23.89;61.24
9695;BME280;4690;52.422;13.486;2022-08-01T08:57:51;101042.97;;;23.92;60.87
9695;BME280;4690;52.422;13.486;2022-08-01T09:00:18;101032.00;;;24.09;61.95
9695;BME280;4690;52.422;13.486;2022-08-01T09:02:47;101029.38;;;24.54;62.04
9695;BME280;4690;52.422;13.486;2022-08-01T09:05:15;101026.72;;;25.08;58.26
9695;BME280;4690;52.422;13.486;2022-08-01T09:07:42;101037.72;;;25.41;56.12
9695;BME280;4690;52.422;13.486;2022-08-01T09:10:08;101034.81;;;25.46;55.17
9695;BME280;4690;52.422;13.486;2022-08-01T09:12:37;101040.38;;;25.68;55.44
9695;BME280;4690;52.422;13.486;2022-08-01T09:15:03;101030.16;;;25.72;53.86
9695;BME280;4690;52.422;13.486;2022-08-01T09:17:40;101033.72;;;25.87;54.85
9695;BME280;4690;52.422;13.486;2022-08-01T09:20:07;101037.34;;;25.87;53.91
9695;BME280;4690;52.422;13.486;2022-08-01T09:22:33;101041.66;;;25.85;53.23
9695;BME280;4690;52.422;13.486;2022-08-01T09:25:10;101046.22;;;25.81;53.30
9695;BME280;4690;52.422;13.486;2022-08-01T09:27:38;101053.78;;;25.71;52.42
9695;BME280;4690;52.422;13.486;2022-08-01T09:30:15;101060.28;;;25.58;53.05
9695;BME280;4690;52.422;13.486;2022-08-01T09:33:02;101047.53;;;25.52;53.48
9695;BME280;4690;52.422;13.486;2022-08-01T09:35:31;101053.63;;;25.45;53.99
9695;BME280;4690;52.422;13.486;2022-08-01T09:38:26;101058.38;;;25.22;52.83
9695;BME280;4690;52.422;13.486;2022-08-01T09:41:00;101064.47;;;25.02;54.22
9695;BME280;4690;52.422;13.486;2022-08-01T09:43:29;101073.44;;;24.90;53.42
9695;BME280;4690;52.422;13.486;2022-08-01T09:45:56;101073.72;;;24.89;54.87
9695;BME280;4690;52.422;13.486;2022-08-01T09:48:22;101068.88;;;24.80;54.71
9695;BME280;4690;52.422;13.486;2022-08-01T09:50:52;101076.47;;;24.80;55.46
9695;BME280;4690;52.422;13.486;2022-08-01T09:53:19;101075.41;;;24.90;54.40
9695;BME280;4690;52.422;13.486;2022-08-01T09:55:45;101081.41;;;24.97;55.04
9695;BME280;4690;52.422;13.486;2022-08-01T09:58:12;101074.34;;;24.99;55.21
9695;BME280;4690;52.422;13.486;2022-08-01T10:00:39;101077.78;;;24.96;55.80
9695;BME280;4690;52.422;13.486;2022-08-01T10:03:26;101086.09;;;24.88;55.52
9695;BME280;4690;52.422;13.486;2022-08-01T10:05:52;101085.13;;;25.06;55.94
9695;BME280;4690;52.422;13.486;2022-08-01T10:08:23;101079.38;;;25.11;55.26
9695;BME280;4690;52.422;13.486;2022-08-01T10:11:11;101087.19;;;25.14;55.25
9695;BME280;4690;52.422;13.486;2022-08-01T10:13:37;101085.63;;;25.08;55.19
9695;BME280;4690;52.422;13.486;2022-08-01T10:16:06;101097.41;;;24.96;54.51
9695;BME280;4690;52.422;13.486;2022-08-01T10:18:34;101096.69;;;24.91;55.13
9695;BME280;4690;52.422;13.486;2022-08-01T10:21:04;101095.81;;;24.68;55.22
9695;BME280;4690;52.422;13.486;2022-08-01T10:23:37;101106.09;;;24.72;55.41
9695;BME280;4690;52.422;13.486;2022-08-01T10:26:05;101105.78;;;24.60;55.69
9695;BME280;4690;52.422;13.486;2022-08-01T10:28:35;101099.44;;;24.54;55.75
9695;BME280;4690;52.422;13.486;2022-08-01T10:31:02;101101.63;;;24.44;56.22
9695;BME280;4690;52.422;13.486;2022-08-01T10:33:29;101101.00;;;24.47;56.24
9695;BME280;4690;52.422;13.486;2022-08-01T10:35:57;101109.06;;;24.34;56.35
9695;BME280;4690;52.422;13.486;2022-08-01T10:38:23;101111.66;;;24.31;56.62
9695;BME280;4690;52.422;13.486;2022-08-01T10:40:50;101100.47;;;24.17;56.57
9695;BME280;4690;52.422;13.486;2022-08-01T10:43:17;101104.19;;;24.26;57.22
9695;BME280;4690;52.422;13.486;2022-08-01T10:45:43;101101.00;;;24.33;56.52
9695;BME280;4690;52.422;13.486;2022-08-01T10:51:07;101108.34;;;24.29;56.96
9695;BME280;4690;52.422;13.486;2022-08-01T10:53:33;101104.63;;;24.33;56.08
9695;BME280;4690;52.422;13.486;2022-08-01T10:56:02;101110.31;;;24.42;56.39
9695;BME280;4690;52.422;13.486;2022-08-01T10:58:42;101107.53;;;24.28;56.69
9695;BME280;4690;52.422;13.486;2022-08-01T11:01:21;101099.34;;;24.46;57.14
9695;BME280;4690;52.422;13.486;2022-08-01T11:04:05;101107.66;;;24.65;56.42
9695;BME280;4690;52.422;13.486;2022-08-01T11:09:04;101113.22;;;24.78;55.74
9695;BME280;4690;52.422;13.486;2022-08-01T11:11:30;101111.63;;;24.86;56.34
9695;BME280;4690;52.422;13.486;2022-08-01T11:16:34;101119.44;;;24.89;55.18
9695;BME280;4690;52.422;13.486;2022-08-01T11:19:02;101121.47;;;24.97;55.91
9695;BME280;4690;52.422;13.486;2022-08-01T11:21:58;101115.59;;;24.85;54.90
9695;BME280;4690;52.422;13.486;2022-08-01T11:25:01;101129.94;;;24.83;56.05
9695;BME280;4690;52.422;13.486;2022-08-01T11:27:30;101128.88;;;24.93;56.03
9695;BME280;4690;52.422;13.486;2022-08-01T11:30:22;101133.13;;;25.04;55.40
9695;BME280;4690;52.422;13.486;2022-08-01T11:32:54;101130.72;;;25.12;55.75
9695;BME280;4690;52.422;13.486;2022-08-01T11:35:23;101137.78;;;25.09;55.40
9695;BME280;4690;52.422;13.486;2022-08-01T11:37:53;101135.41;;;25.02;54.93
9695;BME280;4690;52.422;13.486;2022-08-01T11:40:22;101136.75;;;25.05;55.25
9695;BME280;4690;52.422;13.486;2022-08-01T11:42:50;101136.00;;;25.13;55.72
9695;BME280;4690;52.422;13.486;2022-08-01T11:45:16;101140.59;;;25.23;55.40
9695;BME280;4690;52.422;13.486;2022-08-01T11:47:50;101133.50;;;25.25;54.55
9695;BME280;4690;52.422;13.486;2022-08-01T11:50:34;101143.25;;;25.28;54.71
9695;BME280;4690;52.422;13.486;2022-08-01T11:53:06;101157.91;;;25.11;55.54
9695;BME280;4690;52.422;13.486;2022-08-01T11:55:33;101150.91;;;24.86;60.23
9695;BME280;4690;52.422;13.486;2022-08-01T11:58:07;101156.72;;;24.48;62.64
9695;BME280;4690;52.422;13.486;2022-08-01T12:00:33;101159.38;;;24.26;64.99
9695;BME280;4690;52.422;13.486;2022-08-01T12:03:07;101161.84;;;24.00;66.12
9695;BME280;4690;52.422;13.486;2022-08-01T12:05:35;101164.47;;;23.77;67.17
9695;BME280;4690;52.422;13.486;2022-08-01T12:08:03;101165.72;;;23.66;67.74
9695;BME280;4690;52.422;13.486;2022-08-01T12:10:34;101171.56;;;23.50;68.34
9695;BME280;4690;52.422;13.486;2022-08-01T12:13:06;101173.38;;;23.41;69.02
9695;BME280;4690;52.422;13.486;2022-08-01T12:15:37;101164.47;;;23.39;69.87
9695;BME280;4690;52.422;13.486;2022-08-01T12:18:06;101170.06;;;23.39;69.76
9695;BME280;4690;52.422;13.486;2022-08-01T12:20:36;101163.63;;;23.39;70.88
9695;BME280;4690;52.422;13.486;2022-08-01T12:23:06;101156.81;;;23.45;71.45
9695;BME280;4690;52.422;13.486;2022-08-01T12:25:34;101159.53;;;23.50;71.22
9695;BME280;4690;52.422;13.486;2022-08-01T12:28:05;101154.22;;;23.67;71.24
9695;BME280;4690;52.422;13.486;2022-08-01T12:30:32;101163.75;;;23.85;70.94
9695;BME280;4690;52.422;13.486;2022-08-01T12:33:04;101159.13;;;23.94;69.31
9695;BME280;4690;52.422;13.486;2022-08-01T12:35:31;101150.75;;;24.08;68.21
9695;BME280;4690;52.422;13.486;2022-08-01T12:38:23;101156.16;;;24.19;65.69
9695;BME280;4690;52.422;13.486;2022-08-01T12:40:50;101153.59;;;24.36;64.52
9695;BME280;4690;52.422;13.486;2022-08-01T12:43:21;101162.13;;;24.45;64.01
9695;BME280;4690;52.422;13.486;2022-08-01T12:45:50;101155.81;;;24.53;62.32
9695;BME280;4690;52.422;13.486;2022-08-01T12:48:18;101150.41;;;24.70;62.33
9695;BME280;4690;52.422;13.486;2022-08-01T12:50:48;101154.13;;;24.79;57.13
9695;BME280;4690;52.422;13.486;2022-08-01T12:53:14;101153.59;;;24.91;58.25
9695;BME280;4690;52.422;13.486;2022-08-01T12:55:53;101155.84;;;25.03;56.62
9695;BME280;4690;52.422;13.486;2022-08-01T12:58:20;101166.78;;;25.18;57.86
9695;BME280;4690;52.422;13.486;2022-08-01T13:00:49;101156.06;;;25.20;56.87
9695;BME280;4690;52.422;13.486;2022-08-01T13:03:20;101167.69;;;25.27;57.09
9695;BME280;4690;52.422;13.486;2022-08-01T13:05:55;101160.69;;;25.39;56.58
9695;BME280;4690;52.422;13.486;2022-08-01T13:08:33;101157.63;;;25.49;55.63
9695;BME280;4690;52.422;13.486;2022-08-01T13:11:09;101159.75;;;25.66;55.42
9695;BME280;4690;52.422;13.486;2022-08-01T13:13:47;101155.03;;;25.75;55.54
9695;BME280;4690;52.422;13.486;2022-08-01T13:16:23;101158.94;;;25.88;54.79
9695;BME280;4690;52.422;13.486;2022-08-01T13:18:51;101153.53;;;25.91;53.99
9695;BME280;4690;52.422;13.486;2022-08-01T13:21:23;101140.34;;;26.01;52.97
9695;BME280;4690;52.422;13.486;2022-08-01T13:24:12;101140.13;;;26.20;54.38
9695;BME280;4690;52.422;13.486;2022-08-01T13:26:45;101150.63;;;26.36;53.18
9695;BME280;4690;52.422;13.486;2022-08-01T13:29:22;101151.94;;;26.39;50.99
9695;BME280;4690;52.422;13.486;2022-08-01T13:31:53;101150.78;;;26.40;51.59
9695;BME280;4690;52.422;13.486;2022-08-01T13:34:30;101149.78;;;26.36;52.66
9695;BME280;4690;52.422;13.486;2022-08-01T13:36:56;101153.88;;;26.30;52.82